Time,TemperatureF,DewpointF,PressureIn,WindDirection,WindDirectionDegrees,WindSpeedMPH,WindSpeedGustMPH,Humidity,HourlyPrecipIn,Conditions,Clouds,dailyrainin,SoftwareType,DateUTC
2013-12-27 00:02:00,21.0,10.0,-100.00,SSW,212,5.0,8.0,63,0.00,,,0.00,,2013-12-27 05:02:00,
2013-12-27 00:12:00,21.0,10.0,-100.00,SSW,212,5.0,8.0,63,0.00,,,0.00,,2013-12-27 05:12:00,
2013-12-27 00:22:00,21.0,10.0,-100.00,SSW,212,5.0,8.0,63,0.00,,,0.00,,2013-12-27 05:22:00,
2013-12-27 00:52:00,21.0,11.0,-100.00,SSW,198,6.0,10.0,65,0.00,,,0.00,,2013-12-27 05:52:00,
2013-12-27 01:02:00,21.0,11.0,-100.00,SSW,198,6.0,10.0,65,0.00,,,0.00,,2013-12-27 06:02:00,
2013-12-27 01:12:00,21.0,11.0,-100.00,SSW,198,6.0,10.0,65,0.00,,,0.00,,2013-12-27 06:12:00,
2013-12-27 01:22:00,21.0,11.0,-100.00,SSW,198,6.0,10.0,65,0.00,,,0.00,,2013-12-27 06:22:00,
2013-12-27 01:52:00,22.0,12.0,-100.00,SSW,200,5.0,14.0,64,0.00,,,0.00,,2013-12-27 06:52:00,
2013-12-27 02:02:00,22.0,12.0,-100.00,SSW,200,5.0,14.0,64,0.00,,,0.00,,2013-12-27 07:02:00,
2013-12-27 02:12:00,22.0,12.0,-100.00,SSW,200,5.0,14.0,64,0.00,,,0.00,,2013-12-27 07:12:00,
2013-12-27 02:22:00,22.0,12.0,-100.00,SSW,200,5.0,14.0,64,0.00,,,0.00,,2013-12-27 07:22:00,
2013-12-27 02:52:00,21.0,11.0,-100.00,SW,225,2.0,9.0,66,0.00,,,0.00,,2013-12-27 07:52:00,
2013-12-27 03:02:00,21.0,11.0,-100.00,SW,225,2.0,9.0,66,0.00,,,0.00,,2013-12-27 08:02:00,
2013-12-27 03:11:00,21.0,11.0,-100.00,SW,225,2.0,9.0,66,0.00,,,0.00,,2013-12-27 08:11:00,
2013-12-27 03:22:00,21.0,11.0,-100.00,SW,225,2.0,9.0,66,0.00,,,0.00,,2013-12-27 08:22:00,
2013-12-27 03:52:00,21.0,11.0,-100.00,SSW,195,3.0,16.0,65,0.00,,,0.00,,2013-12-27 08:52:00,
2013-12-27 04:02:00,21.0,11.0,-100.00,SSW,195,3.0,16.0,65,0.00,,,0.00,,2013-12-27 09:02:00,
2013-12-27 04:11:00,21.0,11.0,-100.00,SSW,195,3.0,16.0,65,0.00,,,0.00,,2013-12-27 09:11:00,
2013-12-27 04:21:00,21.0,11.0,-100.00,SSW,195,3.0,16.0,65,0.00,,,0.00,,2013-12-27 09:21:00,
2013-12-27 04:53:00,23.0,13.0,-100.00,South,186,6.0,12.0,66,0.00,,,0.00,,2013-12-27 09:53:00,
2013-12-27 05:03:00,23.0,13.0,-100.00,South,186,6.0,12.0,66,0.00,,,0.00,,2013-12-27 10:03:00,
2013-12-27 05:12:00,23.0,13.0,-100.00,South,186,6.0,12.0,66,0.00,,,0.00,,2013-12-27 10:12:00,
2013-12-27 05:23:00,23.0,13.0,-100.00,South,186,6.0,12.0,66,0.00,,,0.00,,2013-12-27 10:23:00,
2013-12-27 05:53:00,22.0,13.0,-100.00,SSW,210,3.0,17.0,68,0.00,,,0.00,,2013-12-27 10:53:00,
2013-12-27 06:02:00,22.0,13.0,-100.00,SSW,210,3.0,17.0,68,0.00,,,0.00,,2013-12-27 11:02:00,
2013-12-27 06:12:00,22.0,13.0,-100.00,SSW,210,3.0,17.0,68,0.00,,,0.00,,2013-12-27 11:12:00,
2013-12-27 06:22:00,22.0,13.0,-100.00,SSW,210,3.0,17.0,68,0.00,,,0.00,,2013-12-27 11:22:00,
2013-12-27 06:53:00,23.0,13.0,-100.00,SSW,209,5.0,9.0,65,0.00,,,0.00,,2013-12-27 11:53:00,
2013-12-27 07:01:00,23.0,13.0,-100.00,SSW,209,5.0,9.0,65,0.00,,,0.00,,2013-12-27 12:01:00,
2013-12-27 07:12:00,23.0,13.0,-100.00,SSW,209,5.0,9.0,65,0.00,,,0.00,,2013-12-27 12:12:00,
2013-12-27 07:21:00,23.0,13.0,-100.00,SSW,209,5.0,9.0,65,0.00,,,0.00,,2013-12-27 12:21:00,
2013-12-27 07:53:00,23.0,13.0,-100.00,SSW,209,4.0,9.0,64,0.00,,,0.00,,2013-12-27 12:53:00,
2013-12-27 08:02:00,23.0,13.0,-100.00,SSW,209,4.0,9.0,64,0.00,,,0.00,,2013-12-27 13:02:00,
2013-12-27 08:11:00,23.0,13.0,-100.00,SSW,209,4.0,9.0,64,0.00,,,0.00,,2013-12-27 13:11:00,
2013-12-27 08:22:00,23.0,13.0,-100.00,SSW,209,4.0,9.0,64,0.00,,,0.00,,2013-12-27 13:22:00,
2013-12-27 08:53:00,21.0,13.0,-100.00,West,264,2.0,14.0,70,0.00,,,0.00,,2013-12-27 13:53:00,
2013-12-27 09:02:00,21.0,13.0,-100.00,West,264,2.0,14.0,70,0.00,,,0.00,,2013-12-27 14:02:00,
2013-12-27 09:12:00,21.0,13.0,-100.00,West,264,2.0,14.0,70,0.00,,,0.00,,2013-12-27 14:12:00,
2013-12-27 09:22:00,21.0,13.0,-100.00,West,264,2.0,14.0,70,0.00,,,0.00,,2013-12-27 14:22:00,
2013-12-27 09:52:00,21.0,12.0,-100.00,SSW,206,4.0,14.0,68,0.00,,,0.00,,2013-12-27 14:52:00,
2013-12-27 10:02:00,21.0,12.0,-100.00,SSW,206,4.0,14.0,68,0.00,,,0.00,,2013-12-27 15:02:00,
2013-12-27 10:11:00,21.0,12.0,-100.00,SSW,206,4.0,14.0,68,0.00,,,0.00,,2013-12-27 15:11:00,
2013-12-27 10:22:00,21.0,12.0,-100.00,SSW,206,4.0,14.0,68,0.00,,,0.00,,2013-12-27 15:22:00,
2013-12-27 10:54:00,23.0,13.0,-100.00,SW,220,4.0,11.0,66,0.00,,,0.00,,2013-12-27 15:54:00,
2013-12-27 11:03:00,23.0,13.0,-100.00,SW,220,4.0,11.0,66,0.00,,,0.00,,2013-12-27 16:03:00,
2013-12-27 11:13:00,23.0,13.0,-100.00,SW,220,4.0,11.0,66,0.00,,,0.00,,2013-12-27 16:13:00,
2013-12-27 11:23:00,23.0,13.0,-100.00,SW,220,4.0,11.0,66,0.00,,,0.00,,2013-12-27 16:23:00,
2013-12-27 11:53:00,30.0,15.0,-100.00,WNW,303,2.0,9.0,53,0.00,,,0.00,,2013-12-27 16:53:00,
2013-12-27 12:02:00,30.0,15.0,-100.00,WNW,303,2.0,9.0,53,0.00,,,0.00,,2013-12-27 17:02:00,
2013-12-27 12:12:00,30.0,15.0,-100.00,WNW,303,2.0,9.0,53,0.00,,,0.00,,2013-12-27 17:12:00,
2013-12-27 12:22:00,30.0,15.0,-100.00,WNW,303,2.0,9.0,53,0.00,,,0.00,,2013-12-27 17:22:00,
2013-12-27 12:52:00,38.0,18.0,-100.00,North,-999,0.0,4.0,43,0.01,,,0.01,,2013-12-27 17:52:00,
2013-12-27 13:02:00,38.0,18.0,-100.00,North,-999,0.0,4.0,43,0.01,,,0.01,,2013-12-27 18:02:00,
2013-12-27 13:12:00,38.0,18.0,-100.00,North,-999,0.0,4.0,43,0.01,,,0.01,,2013-12-27 18:12:00,
2013-12-27 13:22:00,38.0,18.0,-100.00,North,-999,0.0,4.0,43,0.01,,,0.01,,2013-12-27 18:22:00,
2013-12-27 13:53:00,35.0,13.0,-100.00,WNW,299,3.0,5.0,39,0.01,,,0.02,,2013-12-27 18:53:00,
2013-12-27 14:02:00,35.0,13.0,-100.00,WNW,299,3.0,5.0,39,0.01,,,0.02,,2013-12-27 19:02:00,
2013-12-27 14:12:00,35.0,13.0,-100.00,WNW,299,3.0,5.0,39,0.01,,,0.02,,2013-12-27 19:12:00,
2013-12-27 14:22:00,35.0,13.0,-100.00,WNW,299,3.0,5.0,39,0.01,,,0.02,,2013-12-27 19:22:00,
2013-12-27 14:52:00,35.0,12.0,-100.00,West,280,5.0,7.0,38,0.01,,,0.03,,2013-12-27 19:52:00,
2013-12-27 15:02:00,35.0,12.0,-100.00,West,280,5.0,7.0,38,0.01,,,0.03,,2013-12-27 20:02:00,
2013-12-27 15:11:00,35.0,12.0,-100.00,West,280,5.0,7.0,38,0.01,,,0.03,,2013-12-27 20:11:00,
2013-12-27 15:21:00,35.0,12.0,-100.00,West,280,5.0,7.0,38,0.01,,,0.03,,2013-12-27 20:21:00,
2013-12-27 15:52:00,35.0,13.0,-100.00,WNW,301,4.0,9.0,39,0.00,,,0.03,,2013-12-27 20:52:00,
2013-12-27 16:02:00,35.0,13.0,-100.00,WNW,301,4.0,9.0,39,0.00,,,0.03,,2013-12-27 21:02:00,
2013-12-27 16:11:00,35.0,13.0,-100.00,WNW,301,4.0,9.0,39,0.00,,,0.03,,2013-12-27 21:11:00,
2013-12-27 16:22:00,35.0,13.0,-100.00,WNW,301,4.0,9.0,39,0.00,,,0.03,,2013-12-27 21:22:00,
2013-12-27 16:53:00,35.0,13.0,-100.00,North,358,4.0,8.0,40,0.00,,,0.03,,2013-12-27 21:53:00,
2013-12-27 17:03:00,35.0,13.0,-100.00,North,358,4.0,8.0,40,0.00,,,0.03,,2013-12-27 22:03:00,
2013-12-27 17:13:00,35.0,13.0,-100.00,North,358,4.0,8.0,40,0.00,,,0.03,,2013-12-27 22:13:00,
2013-12-27 17:23:00,35.0,13.0,-100.00,North,358,4.0,8.0,40,0.00,,,0.03,,2013-12-27 22:23:00,
2013-12-27 17:53:00,36.0,13.0,-100.00,NW,326,1.0,5.0,39,0.00,,,0.03,,2013-12-27 22:53:00,
2013-12-27 18:02:00,36.0,13.0,-100.00,NW,326,1.0,5.0,39,0.00,,,0.03,,2013-12-27 23:02:00,
2013-12-27 18:12:00,36.0,13.0,-100.00,NW,326,1.0,5.0,39,0.00,,,0.03,,2013-12-27 23:12:00,
2013-12-27 18:21:00,36.0,13.0,-100.00,NW,326,1.0,5.0,39,0.00,,,0.03,,2013-12-27 23:21:00,
2013-12-27 18:53:00,33.0,13.0,-100.00,North,-999,0.0,5.0,43,0.00,,,0.03,,2013-12-27 23:53:00,
2013-12-27 19:02:00,33.0,13.0,-100.00,North,-999,0.0,5.0,43,0.00,,,0.03,,2013-12-28 00:02:00,
2013-12-27 19:11:00,33.0,13.0,-100.00,North,-999,0.0,5.0,43,0.00,,,0.03,,2013-12-28 00:11:00,
2013-12-27 19:22:00,33.0,13.0,-100.00,North,-999,0.0,5.0,43,0.00,,,0.03,,2013-12-28 00:22:00,
2013-12-27 19:52:00,25.0,11.0,-100.00,North,-999,0.0,2.0,54,0.00,,,0.03,,2013-12-28 00:52:00,
2013-12-27 20:02:00,25.0,11.0,-100.00,North,-999,0.0,2.0,54,0.00,,,0.03,,2013-12-28 01:02:00,
2013-12-27 20:11:00,25.0,11.0,-100.00,North,-999,0.0,2.0,54,0.00,,,0.03,,2013-12-28 01:11:00,
2013-12-27 20:21:00,25.0,11.0,-100.00,North,-999,0.0,2.0,54,0.00,,,0.03,,2013-12-28 01:21:00,
2013-12-27 20:52:00,26.0,11.0,-100.00,WNW,285,3.0,4.0,52,0.00,,,-99.99,,2013-12-28 01:52:00,
2013-12-27 21:01:00,26.0,11.0,-100.00,WNW,285,3.0,4.0,52,0.00,,,-99.99,,2013-12-28 02:01:00,
2013-12-27 21:12:00,26.0,11.0,-100.00,WNW,285,3.0,4.0,52,0.00,,,-99.99,,2013-12-28 02:12:00,
2013-12-27 21:21:00,26.0,11.0,-100.00,WNW,285,3.0,4.0,52,0.00,,,-99.99,,2013-12-28 02:21:00,
2013-12-27 21:52:00,25.0,11.0,-100.00,East,94,1.0,3.0,54,0.00,,,0.03,,2013-12-28 02:52:00,
2013-12-27 22:02:00,25.0,11.0,-100.00,East,94,1.0,3.0,54,0.00,,,0.03,,2013-12-28 03:02:00,
2013-12-27 22:12:00,25.0,11.0,-100.00,East,94,1.0,3.0,54,0.00,,,0.03,,2013-12-28 03:12:00,
2013-12-27 22:22:00,25.0,11.0,-100.00,East,94,1.0,3.0,54,0.00,,,0.03,,2013-12-28 03:22:00,
2013-12-27 22:53:00,25.0,14.0,-100.00,SSW,208,4.0,5.0,62,0.00,,,0.03,,2013-12-28 03:53:00,
2013-12-27 23:04:00,25.0,14.0,-100.00,SSW,208,4.0,5.0,62,0.00,,,0.03,,2013-12-28 04:04:00,
2013-12-27 23:12:00,25.0,14.0,-100.00,SSW,208,4.0,5.0,62,0.00,,,0.03,,2013-12-28 04:12:00,
2013-12-27 23:22:00,25.0,14.0,-100.00,SSW,208,4.0,5.0,62,0.00,,,0.03,,2013-12-28 04:22:00,
2013-12-27 23:53:00,27.0,14.0,-100.00,SSW,205,4.0,7.0,58,0.00,,,0.03,,2013-12-28 04:53:00,